首页
METAR-TAF:

METAR-TAF

机场 :

卡尔加里国际机场

卡尔加里, 艾伯塔, 加拿大

纬度: 51-07N, 经度: 114-01W, 海拔: 1077米

当前天气观测

该预报发布于24分钟前的12:26 UTC
风速11节,风向北转东北
温度 2°C
湿度 60%
气压 1012 hPa
能見度: 24.1公里
多云层高于7200英尺

METAR: CYYC 181226Z 03011KT 15SM BKN072 02/M05 A2988 RMK AC6 SLP163

时间: 05:50 (12:50 UTC)

预报

该预报发布于1小时和11分钟前的11:39 UTC
预报有效从18日的 12点(UTC)到 19日的 12点(UTC)
风速3节,风向多变
能見度: 10公里
散云层高于5000英尺
多云层高于8000英尺
多云层高于22000英尺
成为
从 18日的 13点(UTC)到 18日的 15点(UTC)
风速10节,风向西转西北
从 18日的 1800点(UTC)
风速12节,风向西北,有时为22节阵风
能見度: 10公里
多云层高于6000英尺
短暂存在
从 18日的 18点(UTC)到 19日的 02点(UTC)
能見度: 10公里
阴天层高于4000英尺
小阵雨
从 19日的 0200点(UTC)
风速8节,风向西
能見度: 10公里
多云层高于5000英尺
从 19日的 0800点(UTC)
风速5节,风向西
能見度: 10公里
散云层高于5000英尺
多云层高于25000英尺

TAF: CYYC 181139Z 1812/1912 VRB03KT P6SM SCT050 BKN080 BKN220 BECMG 1813/1815 30010KT FM181800 32012G22KT P6SM BKN060 TEMPO 1818/1902 P6SM -SHRA OVC040 FM190200 28008KT P6SM BKN050 FM190800 26005KT P6SM SCT050 BKN250 RMK NXT FCST BY 181500Z

超过4000个机场的气象观测和天气预报(METAR&TAF报告)。

可查询的气象台以黄色和红色小点在地图上表示。

将鼠标移到小点上方,可查看气象台名称。

然后点击查看天气观测和预报。

如需切换地图:点击带黑十字的绿色按钮放大地图;点击带横线的绿色按钮缩小地图;或者点击绿色箭头查看邻近地区的地图。


METAR-TAF: